createdAt,value
2018-09-13T00:00:47.514Z,0.00
2018-09-13T00:01:47.478Z,0.00
2018-09-13T00:02:47.511Z,0.00
2018-09-13T00:03:47.483Z,0.00
2018-09-13T00:04:47.463Z,0.00
2018-09-13T00:05:47.514Z,0.00
2018-09-13T00:06:47.458Z,0.00
2018-09-13T00:07:47.473Z,0.00
2018-09-13T00:08:47.399Z,0.00
2018-09-13T00:09:47.436Z,0.00
2018-09-13T00:10:47.398Z,0.00
2018-09-13T00:11:47.372Z,0.00
2018-09-13T00:12:47.360Z,0.00
2018-09-13T00:13:47.504Z,0.00
2018-09-13T00:14:47.352Z,0.00
2018-09-13T00:15:47.331Z,0.00
2018-09-13T00:16:47.319Z,0.00
2018-09-13T00:17:47.302Z,0.00
2018-09-13T00:18:47.304Z,0.00
2018-09-13T00:19:47.274Z,0.00
2018-09-13T00:20:47.277Z,0.00
2018-09-13T00:21:47.250Z,0.00
2018-09-13T00:22:47.254Z,0.00
2018-09-13T00:23:47.225Z,0.00
2018-09-13T00:24:47.221Z,0.00
2018-09-13T00:25:47.214Z,0.00
2018-09-13T00:26:47.227Z,0.00
2018-09-13T00:27:47.234Z,0.00
2018-09-13T00:28:47.179Z,0.00
2018-09-13T00:29:47.164Z,0.00
2018-09-13T00:30:47.149Z,0.00
2018-09-13T00:31:47.161Z,0.00
2018-09-13T00:32:47.189Z,0.00
2018-09-13T00:33:47.134Z,0.00
2018-09-13T00:34:47.106Z,0.00
2018-09-13T00:35:47.091Z,0.00
2018-09-13T00:36:47.085Z,0.00
2018-09-13T00:37:47.067Z,0.00
2018-09-13T00:38:47.080Z,0.00
2018-09-13T00:39:47.073Z,0.00
2018-09-13T00:40:47.074Z,0.00
2018-09-13T00:41:47.030Z,0.00
2018-09-13T00:42:47.012Z,0.00
2018-09-13T00:43:47.013Z,0.00
2018-09-13T00:44:47.000Z,0.00
2018-09-13T00:45:47.058Z,0.00
2018-09-13T00:46:46.975Z,0.00
2018-09-13T00:47:47.008Z,0.00
2018-09-13T00:48:46.950Z,0.00
2018-09-13T00:49:46.942Z,0.00
2018-09-13T00:50:46.942Z,0.00
2018-09-13T00:51:46.958Z,0.00
2018-09-13T00:52:46.911Z,0.00
2018-09-13T00:53:46.918Z,0.00
2018-09-13T00:54:46.884Z,0.00
2018-09-13T00:55:46.877Z,0.00
2018-09-13T00:56:46.887Z,0.00
2018-09-13T00:57:46.892Z,0.00
2018-09-13T00:58:46.841Z,0.00
2018-09-13T00:59:46.824Z,0.00
2018-09-13T01:00:46.822Z,0.00
2018-09-13T01:01:46.823Z,0.00
2018-09-13T01:02:46.796Z,0.00
2018-09-13T01:03:46.796Z,0.00
2018-09-13T01:04:46.776Z,0.00
2018-09-13T01:05:46.761Z,0.00
2018-09-13T01:06:46.795Z,0.00
2018-09-13T01:07:46.782Z,0.00
2018-09-13T01:08:46.730Z,0.00
2018-09-13T01:09:46.732Z,0.00
2018-09-13T01:10:46.702Z,0.00
2018-09-13T01:11:46.697Z,0.00
2018-09-13T01:12:46.679Z,0.00
2018-09-13T01:13:46.695Z,0.00
2018-09-13T01:14:46.662Z,0.00
2018-09-13T01:15:46.672Z,0.00
2018-09-13T01:16:46.636Z,0.00
2018-09-13T01:17:46.628Z,0.00
2018-09-13T01:18:46.636Z,0.00
2018-09-13T01:19:46.602Z,0.00
2018-09-13T01:20:46.590Z,0.00
2018-09-13T01:21:46.621Z,0.00
2018-09-13T01:22:46.590Z,0.00
2018-09-13T01:23:46.556Z,0.00
2018-09-13T01:24:46.560Z,0.00
2018-09-13T01:25:46.537Z,0.00
2018-09-13T01:26:46.527Z,0.00
2018-09-13T01:27:46.555Z,0.00
2018-09-13T01:28:46.500Z,0.00
2018-09-13T01:29:46.531Z,0.00
2018-09-13T01:30:46.483Z,0.00
2018-09-13T01:31:46.474Z,0.00
2018-09-13T01:32:46.463Z,0.00
2018-09-13T01:33:46.452Z,0.00
2018-09-13T01:34:46.456Z,0.00
2018-09-13T01:35:46.424Z,0.00
2018-09-13T01:36:46.455Z,0.00
2018-09-13T01:37:46.411Z,0.00
2018-09-13T01:38:46.389Z,0.00
2018-09-13T01:39:46.379Z,0.00
2018-09-13T01:40:46.381Z,0.00
2018-09-13T01:41:46.358Z,0.00
2018-09-13T01:42:46.371Z,0.00
2018-09-13T01:43:46.338Z,0.00
2018-09-13T01:44:46.330Z,0.00
2018-09-13T01:45:46.312Z,0.00
2018-09-13T01:46:46.349Z,0.00
2018-09-13T01:47:46.297Z,0.00
2018-09-13T01:48:46.297Z,0.00
2018-09-13T01:49:46.274Z,0.00
2018-09-13T01:50:46.260Z,0.00
2018-09-13T01:51:46.249Z,0.00
2018-09-13T01:52:46.243Z,0.00
2018-09-13T01:53:46.246Z,0.00
2018-09-13T01:54:46.212Z,0.00
2018-09-13T01:55:46.215Z,0.00
2018-09-13T01:56:46.194Z,0.00
2018-09-13T01:57:46.183Z,0.00
2018-09-13T01:58:46.199Z,0.00
2018-09-13T01:59:46.198Z,0.00
2018-09-13T02:00:46.165Z,0.00
2018-09-13T02:01:46.135Z,0.00
2018-09-13T02:02:46.126Z,0.00
2018-09-13T02:03:46.113Z,0.00
2018-09-13T02:04:46.138Z,0.00
2018-09-13T02:05:46.094Z,0.00
2018-09-13T02:06:46.110Z,0.00
2018-09-13T02:07:46.067Z,0.00
2018-09-13T02:08:46.060Z,0.00
2018-09-13T02:09:46.048Z,0.00
2018-09-13T02:10:46.062Z,0.00
2018-09-13T02:11:46.025Z,0.00
2018-09-13T02:12:46.019Z,0.00
2018-09-13T02:13:45.999Z,0.00
2018-09-13T02:14:46.011Z,0.00
2018-09-13T02:15:45.996Z,0.00
2018-09-13T02:16:46.008Z,0.00
2018-09-13T02:17:45.963Z,0.00
2018-09-13T02:18:45.956Z,0.00
2018-09-13T02:19:45.952Z,0.00
2018-09-13T02:20:45.945Z,0.00
2018-09-13T02:21:45.913Z,0.00
2018-09-13T02:22:45.910Z,0.00
2018-09-13T02:23:45.894Z,0.00
2018-09-13T02:24:45.874Z,0.00
2018-09-13T02:25:45.868Z,0.00
2018-09-13T02:26:45.898Z,0.00
2018-09-13T02:27:45.847Z,0.00
2018-09-13T02:28:45.845Z,0.00
2018-09-13T02:29:45.817Z,0.00
2018-09-13T02:30:45.810Z,0.00
2018-09-13T02:31:45.805Z,0.00
2018-09-13T02:32:45.812Z,0.00
2018-09-13T02:33:45.783Z,0.00
2018-09-13T02:34:45.779Z,0.00
2018-09-13T02:35:45.755Z,0.00
2018-09-13T02:36:45.795Z,0.00
2018-09-13T02:37:45.730Z,0.00
2018-09-13T02:38:45.721Z,0.00
2018-09-13T02:39:45.713Z,0.00
2018-09-13T02:40:45.715Z,0.00
2018-09-13T02:41:45.685Z,0.00
2018-09-13T02:42:45.697Z,0.00
2018-09-13T02:43:45.665Z,0.00
2018-09-13T02:44:45.659Z,0.00
2018-09-13T02:45:45.643Z,0.00
2018-09-13T02:46:45.634Z,0.00
2018-09-13T02:47:45.616Z,0.00
2018-09-13T02:48:45.623Z,0.00
2018-09-13T02:49:45.602Z,0.00
2018-09-13T02:50:45.700Z,0.00
2018-09-13T02:51:45.571Z,0.00
2018-09-13T02:52:45.590Z,0.00
2018-09-13T02:53:45.558Z,0.00
2018-09-13T02:54:45.547Z,0.00
2018-09-13T02:55:45.533Z,0.00
2018-09-13T02:56:45.523Z,0.00
2018-09-13T02:57:45.506Z,0.00
2018-09-13T02:58:45.522Z,0.00
2018-09-13T02:59:45.504Z,0.00
2018-09-13T03:00:45.470Z,0.00
2018-09-13T03:01:45.466Z,0.00
2018-09-13T03:02:45.449Z,0.00
2018-09-13T03:03:45.451Z,0.00
2018-09-13T03:04:45.451Z,0.00
2018-09-13T03:05:45.438Z,0.00
2018-09-13T03:06:45.405Z,0.00
2018-09-13T03:07:45.400Z,0.00
2018-09-13T03:08:45.387Z,0.00
2018-09-13T03:09:45.394Z,0.00
2018-09-13T03:10:45.363Z,0.00
2018-09-13T03:11:45.356Z,0.00
2018-09-13T03:12:45.337Z,0.00
2018-09-13T03:13:45.327Z,0.00
2018-09-13T03:14:45.337Z,0.00
2018-09-13T03:15:45.323Z,0.00
2018-09-13T03:16:45.291Z,0.00
2018-09-13T03:17:45.295Z,0.00
2018-09-13T03:18:45.277Z,0.00
2018-09-13T03:19:45.258Z,0.00
2018-09-13T03:20:45.268Z,0.00
2018-09-13T03:21:45.239Z,0.00
2018-09-13T03:22:45.225Z,0.00
2018-09-13T03:23:45.229Z,0.00
2018-09-13T03:24:45.204Z,0.00
2018-09-13T03:25:45.206Z,0.00
2018-09-13T03:26:45.193Z,0.00
2018-09-13T03:27:45.168Z,0.00
2018-09-13T03:28:45.159Z,0.00
2018-09-13T03:29:45.159Z,0.00
2018-09-13T03:30:45.164Z,0.00
2018-09-13T03:31:45.130Z,0.00
2018-09-13T03:32:45.138Z,0.00
2018-09-13T03:33:45.112Z,0.00
2018-09-13T03:34:45.097Z,0.00
2018-09-13T03:35:45.101Z,0.00
2018-09-13T03:36:45.068Z,0.00
2018-09-13T03:37:45.056Z,0.00
2018-09-13T03:38:45.064Z,0.00
2018-09-13T03:39:45.038Z,0.00
2018-09-13T03:40:45.025Z,0.00
2018-09-13T03:41:45.045Z,0.00
2018-09-13T03:42:45.001Z,0.00
2018-09-13T03:43:45.006Z,0.00
2018-09-13T03:44:44.978Z,0.00
2018-09-13T03:45:44.967Z,0.00
2018-09-13T03:46:44.980Z,0.00
2018-09-13T03:47:44.954Z,0.00
2018-09-13T03:48:44.934Z,0.00
2018-09-13T03:49:44.920Z,0.00
2018-09-13T03:50:44.916Z,0.00
2018-09-13T03:51:44.904Z,0.00
2018-09-13T03:52:44.929Z,0.00
2018-09-13T03:53:44.880Z,0.00
2018-09-13T03:54:44.870Z,0.00
2018-09-13T03:55:44.866Z,0.00
2018-09-13T03:56:44.843Z,0.00
2018-09-13T03:57:44.831Z,0.00
2018-09-13T03:58:44.839Z,0.00
2018-09-13T03:59:44.861Z,0.00
2018-09-13T04:00:44.809Z,0.00
2018-09-13T04:01:44.801Z,0.00
2018-09-13T04:02:44.778Z,0.00
2018-09-13T04:03:44.803Z,0.00
2018-09-13T04:04:44.752Z,0.00
2018-09-13T04:05:44.765Z,0.00
2018-09-13T04:06:44.729Z,0.00
2018-09-13T04:07:44.722Z,0.00
2018-09-13T04:08:44.737Z,0.00
2018-09-13T04:09:44.703Z,0.00
2018-09-13T04:10:44.682Z,0.00
2018-09-13T04:11:44.684Z,0.00
2018-09-13T04:12:44.668Z,0.00
2018-09-13T04:13:44.657Z,0.00
2018-09-13T04:14:44.662Z,0.00
2018-09-13T04:15:44.703Z,0.00
2018-09-13T04:16:44.644Z,0.00
2018-09-13T04:17:44.649Z,0.00
2018-09-13T04:18:44.647Z,0.00
2018-09-13T04:19:44.588Z,0.00
2018-09-13T04:20:44.580Z,0.00
2018-09-13T04:21:44.587Z,0.00
2018-09-13T04:22:44.574Z,0.00
2018-09-13T04:23:44.597Z,0.00
2018-09-13T04:24:44.529Z,0.00
2018-09-13T04:25:44.518Z,0.00
2018-09-13T04:26:44.507Z,0.00
2018-09-13T04:27:44.513Z,0.00
2018-09-13T04:28:44.502Z,0.00
2018-09-13T04:29:44.484Z,0.00
2018-09-13T04:30:44.466Z,0.00
2018-09-13T04:31:44.478Z,0.00
2018-09-13T04:32:44.442Z,0.00
2018-09-13T04:33:44.433Z,4.00
2018-09-13T04:34:44.419Z,4.00
2018-09-13T04:35:44.535Z,0.00
2018-09-13T04:36:44.406Z,4.00
2018-09-13T04:37:44.419Z,8.00
2018-09-13T04:38:44.379Z,4.00
2018-09-13T04:39:44.365Z,8.00
2018-09-13T04:40:44.349Z,8.00
2018-09-13T04:41:44.369Z,12.00
2018-09-13T04:42:44.324Z,12.00
2018-09-13T04:43:44.334Z,16.00
2018-09-13T04:44:44.323Z,16.00
2018-09-13T04:45:44.341Z,20.00
2018-09-13T04:46:44.283Z,24.00
2018-09-13T04:47:44.340Z,28.00
2018-09-13T04:48:44.258Z,28.00
2018-09-13T04:49:44.246Z,32.00
2018-09-13T04:50:44.236Z,36.00
2018-09-13T04:51:44.225Z,40.00
2018-09-13T04:52:44.221Z,44.00
2018-09-13T04:53:44.240Z,48.00
2018-09-13T04:54:44.199Z,56.00
2018-09-13T04:55:44.179Z,60.00
2018-09-13T04:56:44.189Z,68.00
2018-09-13T04:57:44.196Z,72.00
2018-09-13T04:58:44.174Z,84.00
2018-09-13T04:59:44.151Z,80.00
2018-09-13T05:00:44.124Z,84.00
2018-09-13T05:01:44.134Z,92.00
2018-09-13T05:02:44.110Z,92.00
2018-09-13T05:03:44.118Z,96.00
2018-09-13T05:04:44.114Z,100.00
2018-09-13T05:05:44.067Z,112.00
2018-09-13T05:06:44.172Z,128.00
2018-09-13T05:07:44.046Z,148.00
2018-09-13T05:08:44.040Z,172.00
2018-09-13T05:09:44.021Z,196.00
2018-09-13T05:10:44.007Z,216.00
2018-09-13T05:11:44.021Z,232.00
2018-09-13T05:12:44.078Z,220.00
2018-09-13T05:13:44.849Z,224.00
2018-09-13T05:14:43.969Z,240.00
2018-09-13T05:15:43.959Z,248.00
2018-09-13T05:16:43.967Z,260.00
2018-09-13T05:17:44.006Z,280.00
2018-09-13T05:18:43.953Z,292.00
2018-09-13T05:19:43.939Z,300.00
2018-09-13T05:20:43.926Z,304.00
2018-09-13T05:21:43.886Z,336.00
2018-09-13T05:22:43.880Z,368.00
2018-09-13T05:23:43.966Z,424.00
2018-09-13T05:24:43.936Z,432.00
2018-09-13T05:25:43.904Z,420.00
2018-09-13T05:26:43.840Z,460.00
2018-09-13T05:28:41.737Z,520.00
2018-09-13T05:29:41.382Z,564.00
2018-09-13T05:30:41.383Z,624.00
2018-09-13T05:31:41.235Z,700.00
2018-09-13T05:32:41.379Z,780.00
2018-09-13T05:33:48.205Z,816.00
2018-09-13T05:34:42.888Z,916.00
2018-09-13T05:35:41.166Z,996.00
2018-09-13T05:36:41.169Z,1020.00
2018-09-13T05:37:41.156Z,1064.00
2018-09-13T05:38:41.172Z,1092.00
2018-09-13T05:39:41.138Z,1140.00
2018-09-13T05:40:41.120Z,1264.00
2018-09-13T05:41:41.112Z,1264.00
2018-09-13T05:42:41.088Z,1268.00
2018-09-13T05:43:41.065Z,1228.00
2018-09-13T05:44:41.182Z,1188.00
2018-09-13T05:45:41.052Z,1172.00
2018-09-13T05:46:41.046Z,1132.00
2018-09-13T05:47:41.071Z,1092.00
2018-09-13T05:48:41.019Z,1060.00
2018-09-13T05:49:40.998Z,952.00
2018-09-13T05:50:41.076Z,880.00
2018-09-13T05:51:41.023Z,888.00
2018-09-13T05:52:40.961Z,844.00
2018-09-13T05:53:40.963Z,844.00
2018-09-13T05:54:40.944Z,864.00
2018-09-13T05:55:40.937Z,848.00
2018-09-13T05:56:40.932Z,796.00
2018-09-13T05:57:40.922Z,868.00
2018-09-13T05:58:40.897Z,964.00
2018-09-13T05:59:40.917Z,896.00
2018-09-13T06:00:40.872Z,916.00
2018-09-13T06:01:40.878Z,952.00
2018-09-13T06:02:40.885Z,972.00
2018-09-13T06:03:40.850Z,968.00
2018-09-13T06:04:40.834Z,896.00
2018-09-13T06:05:40.938Z,816.00
2018-09-13T06:06:40.804Z,844.00
2018-09-13T06:07:40.793Z,896.00
2018-09-13T06:08:40.819Z,876.00
2018-09-13T06:09:41.373Z,864.00
2018-09-13T06:10:40.756Z,856.00
2018-09-13T06:11:40.778Z,884.00
2018-09-13T06:12:40.744Z,896.00
2018-09-13T06:13:40.850Z,972.00
2018-09-13T06:14:40.781Z,1032.00
2018-09-13T06:15:40.702Z,1128.00
2018-09-13T06:16:40.697Z,1404.00
2018-09-13T06:17:40.708Z,1636.00
2018-09-13T06:18:40.668Z,2072.00
2018-09-13T06:19:40.717Z,2508.00
2018-09-13T06:20:40.646Z,2852.00
2018-09-13T06:21:40.642Z,3132.00
2018-09-13T06:22:40.637Z,3428.00
2018-09-13T06:23:40.659Z,3548.00
2018-09-13T06:24:40.619Z,3676.00
2018-09-13T06:25:40.603Z,3636.00
2018-09-13T06:26:40.579Z,3732.00
2018-09-13T06:27:40.572Z,3776.00
2018-09-13T06:28:40.556Z,4340.00
2018-09-13T06:29:40.626Z,4704.00
2018-09-13T06:30:40.588Z,5048.00
2018-09-13T06:31:40.545Z,5916.00
2018-09-13T06:32:40.513Z,6824.00
2018-09-13T06:33:40.498Z,7344.00
2018-09-13T06:34:40.498Z,8080.00
2018-09-13T06:35:40.489Z,7984.00
2018-09-13T06:36:40.508Z,7756.00
2018-09-13T06:37:40.460Z,7512.00
2018-09-13T06:38:40.453Z,6848.00
2018-09-13T06:39:40.437Z,5840.00
2018-09-13T06:40:40.425Z,4916.00
2018-09-13T06:41:40.433Z,4460.00
2018-09-13T06:42:40.425Z,3808.00
2018-09-13T06:43:40.388Z,3260.00
2018-09-13T06:44:40.383Z,3284.00
2018-09-13T06:45:40.371Z,3576.00
2018-09-13T06:46:40.390Z,3820.00
2018-09-13T06:47:40.349Z,3796.00
2018-09-13T06:48:40.402Z,3640.00
2018-09-13T06:49:40.330Z,4232.00
2018-09-13T06:50:40.341Z,4612.00
2018-09-13T06:51:40.304Z,4424.00
2018-09-13T06:52:40.338Z,3928.00
2018-09-13T06:53:40.297Z,4152.00
2018-09-13T06:54:40.264Z,4628.00
2018-09-13T06:55:40.269Z,4648.00
2018-09-13T06:56:40.247Z,4688.00
2018-09-13T06:57:40.249Z,4364.00
2018-09-13T06:58:40.234Z,4588.00
2018-09-13T06:59:40.214Z,4584.00
2018-09-13T07:00:40.207Z,4860.00
2018-09-13T07:01:40.234Z,4680.00
2018-09-13T07:02:40.209Z,4420.00
2018-09-13T07:03:40.179Z,4244.00
2018-09-13T07:04:40.156Z,4296.00
2018-09-13T07:05:40.152Z,4280.00
2018-09-13T07:06:40.138Z,3784.00
2018-09-13T07:07:40.140Z,3632.00
2018-09-13T07:08:40.143Z,3592.00
2018-09-13T07:09:40.107Z,3276.00
2018-09-13T07:10:40.093Z,3412.00
2018-09-13T07:11:40.078Z,3484.00
2018-09-13T07:12:40.067Z,3264.00
2018-09-13T07:13:40.070Z,3468.00
2018-09-13T07:14:40.065Z,3756.00
2018-09-13T07:15:40.031Z,3544.00
2018-09-13T07:16:40.035Z,3744.00
2018-09-13T07:17:40.015Z,4284.00
2018-09-13T07:18:40.018Z,4528.00
2018-09-13T07:19:39.988Z,5080.00
2018-09-13T07:20:39.983Z,5624.00
2018-09-13T07:21:39.966Z,5964.00
2018-09-13T07:22:39.955Z,5744.00
2018-09-13T07:23:40.014Z,4692.00
2018-09-13T07:24:39.945Z,4548.00
2018-09-13T07:25:39.924Z,4892.00
2018-09-13T07:26:39.947Z,4868.00
2018-09-13T07:27:39.907Z,4912.00
2018-09-13T07:28:39.907Z,4752.00
2018-09-13T07:29:39.882Z,4504.00
2018-09-13T07:30:39.870Z,4800.00
2018-09-13T07:31:39.858Z,4784.00
2018-09-13T07:32:39.848Z,4816.00
2018-09-13T07:33:39.870Z,4740.00
2018-09-13T07:34:39.842Z,4624.00
2018-09-13T07:35:39.812Z,4672.00
2018-09-13T07:36:39.850Z,4700.00
2018-09-13T07:37:39.789Z,4636.00
2018-09-13T07:38:39.799Z,4640.00
2018-09-13T07:39:39.787Z,4540.00
2018-09-13T07:40:40.407Z,4516.00
2018-09-13T07:41:39.743Z,4788.00
2018-09-13T07:42:39.882Z,5260.00
2018-09-13T07:43:39.727Z,5568.00
2018-09-13T07:44:39.720Z,5344.00
2018-09-13T07:45:39.724Z,5408.00
2018-09-13T07:46:39.800Z,5636.00
2018-09-13T07:47:39.677Z,5780.00
2018-09-13T07:48:39.673Z,5804.00
2018-09-13T07:49:39.955Z,6108.00
2018-09-13T07:50:39.659Z,6436.00
2018-09-13T07:51:39.655Z,6804.00
2018-09-13T07:52:39.621Z,6376.00
2018-09-13T07:53:39.630Z,6384.00
2018-09-13T07:54:39.601Z,6692.00
2018-09-13T07:55:39.662Z,7144.00
2018-09-13T07:56:39.664Z,7128.00
2018-09-13T07:57:39.596Z,6572.00
2018-09-13T07:58:39.561Z,6604.00
2018-09-13T07:59:39.550Z,7520.00
2018-09-13T08:00:39.623Z,7772.00
2018-09-13T08:01:39.590Z,7940.00
2018-09-13T08:03:50.794Z,7696.00
2018-09-13T08:04:50.565Z,7172.00
2018-09-13T08:05:50.426Z,7420.00
2018-09-13T08:06:50.299Z,8200.00
2018-09-13T08:07:50.287Z,9072.00
2018-09-13T08:08:50.251Z,9624.00
2018-09-13T08:09:50.239Z,10356.00
2018-09-13T08:10:50.281Z,11348.00
2018-09-13T08:11:50.267Z,12112.00
2018-09-13T08:12:50.243Z,11332.00
2018-09-13T08:13:50.202Z,10400.00
2018-09-13T08:14:50.183Z,10748.00
2018-09-13T08:15:50.226Z,10304.00
2018-09-13T08:16:50.176Z,8888.00
2018-09-13T08:17:50.327Z,7960.00
2018-09-13T08:18:50.205Z,7540.00
2018-09-13T08:19:50.158Z,7424.00
2018-09-13T08:20:50.139Z,8372.00
2018-09-13T08:21:50.195Z,9772.00
2018-09-13T08:22:50.094Z,10124.00
2018-09-13T08:23:50.182Z,10984.00
2018-09-13T08:24:50.066Z,11408.00
2018-09-13T08:25:50.091Z,11588.00
2018-09-13T08:26:50.047Z,11888.00
2018-09-13T08:27:51.040Z,13204.00
2018-09-13T08:28:50.050Z,14868.00
2018-09-13T08:29:50.007Z,15188.00
2018-09-13T08:30:50.084Z,14088.00
2018-09-13T08:31:50.233Z,12252.00
2018-09-13T08:32:50.031Z,12564.00
2018-09-13T08:33:50.024Z,12528.00
2018-09-13T08:34:50.101Z,14040.00
2018-09-13T08:35:49.956Z,13676.00
2018-09-13T08:36:50.012Z,12888.00
2018-09-13T08:37:49.917Z,12860.00
2018-09-13T08:38:49.909Z,14676.00
2018-09-13T08:39:49.969Z,14960.00
2018-09-13T08:40:49.889Z,13604.00
2018-09-13T08:41:49.886Z,12392.00
2018-09-13T08:42:49.897Z,11584.00
2018-09-13T08:43:49.859Z,10616.00
2018-09-13T08:44:49.855Z,9732.00
2018-09-13T08:45:49.861Z,9544.00
2018-09-13T08:46:49.823Z,9416.00
2018-09-13T08:47:49.850Z,9420.00
2018-09-13T08:48:49.804Z,9936.00
2018-09-13T08:49:49.797Z,11276.00
2018-09-13T08:50:49.799Z,12152.00
2018-09-13T08:51:49.779Z,12928.00
2018-09-13T08:52:49.757Z,13576.00
2018-09-13T08:53:49.763Z,14376.00
2018-09-13T08:54:49.778Z,13464.00
2018-09-13T08:55:49.771Z,12772.00
2018-09-13T08:56:49.730Z,12104.00
2018-09-13T08:57:49.701Z,11132.00
2018-09-13T08:58:49.693Z,10488.00
2018-09-13T08:59:49.694Z,10424.00
2018-09-13T09:00:49.728Z,10484.00
2018-09-13T09:01:49.697Z,10576.00
2018-09-13T09:02:49.694Z,10684.00
2018-09-13T09:03:49.634Z,10532.00
2018-09-13T09:04:49.620Z,10352.00
2018-09-13T09:05:49.635Z,10264.00
2018-09-13T09:06:49.615Z,10732.00
2018-09-13T09:07:49.634Z,10936.00
2018-09-13T09:08:49.580Z,11576.00
2018-09-13T09:09:49.571Z,12236.00
2018-09-13T09:10:49.588Z,12132.00
2018-09-13T09:11:49.608Z,11548.00
2018-09-13T09:12:49.570Z,10844.00
2018-09-13T09:13:49.527Z,10164.00
2018-09-13T09:14:49.510Z,9336.00
2018-09-13T09:15:49.537Z,8236.00
2018-09-13T09:16:49.490Z,7068.00
2018-09-13T09:17:49.481Z,6252.00
2018-09-13T09:18:49.512Z,6116.00
2018-09-13T09:19:49.453Z,6256.00
2018-09-13T09:20:49.443Z,6464.00
2018-09-13T09:21:49.476Z,6632.00
2018-09-13T09:22:49.427Z,6992.00
2018-09-13T09:23:49.422Z,7580.00
2018-09-13T09:24:49.426Z,7912.00
2018-09-13T09:25:49.409Z,8240.00
2018-09-13T09:26:49.381Z,9380.00
2018-09-13T09:27:49.413Z,11684.00
2018-09-13T09:28:49.365Z,14200.00
2018-09-13T09:29:49.416Z,16644.00
2018-09-13T09:30:49.359Z,19328.00
2018-09-13T09:31:49.324Z,22432.00
2018-09-13T09:32:49.346Z,25216.00
2018-09-13T09:33:49.345Z,27264.00
2018-09-13T09:34:49.418Z,27872.00
2018-09-13T09:35:49.335Z,25888.00
2018-09-13T09:36:49.267Z,22688.00
2018-09-13T09:37:49.257Z,20256.00
2018-09-13T09:38:49.283Z,18688.00
2018-09-13T09:39:49.283Z,19264.00
2018-09-13T09:40:49.226Z,24160.00
2018-09-13T09:41:49.253Z,28608.00
2018-09-13T09:42:49.200Z,28064.00
2018-09-13T09:43:49.212Z,27808.00
2018-09-13T09:44:49.195Z,28128.00
2018-09-13T09:45:49.173Z,28608.00
2018-09-13T09:46:49.156Z,28736.00
2018-09-13T09:47:49.205Z,27488.00
2018-09-13T09:48:49.135Z,27136.00
2018-09-13T09:49:49.152Z,26976.00
2018-09-13T09:50:49.111Z,25280.00
2018-09-13T09:51:49.136Z,23136.00
2018-09-13T09:52:49.089Z,21024.00
2018-09-13T09:53:49.119Z,19840.00
2018-09-13T09:54:49.125Z,19744.00
2018-09-13T09:55:49.056Z,19904.00
2018-09-13T09:56:49.050Z,20704.00
2018-09-13T09:57:49.057Z,21568.00
2018-09-13T09:58:49.024Z,21632.00
2018-09-13T09:59:49.037Z,20064.00
2018-09-13T10:00:49.024Z,16792.00
2018-09-13T10:01:48.990Z,13476.00
2018-09-13T10:02:48.984Z,10692.00
2018-09-13T10:03:48.970Z,9180.00
2018-09-13T10:04:48.975Z,8760.00
2018-09-13T10:05:48.963Z,8976.00
2018-09-13T10:06:48.971Z,9744.00
2018-09-13T10:07:48.930Z,11100.00
2018-09-13T10:08:48.952Z,12960.00
2018-09-13T10:09:49.004Z,15036.00
2018-09-13T10:10:48.943Z,16792.00
2018-09-13T10:11:48.901Z,18400.00
2018-09-13T10:12:48.883Z,19712.00
2018-09-13T10:13:48.860Z,20608.00
2018-09-13T10:14:48.905Z,21856.00
2018-09-13T10:15:48.838Z,22944.00
2018-09-13T10:16:48.868Z,23616.00
2018-09-13T10:17:48.814Z,23104.00
2018-09-13T10:18:48.800Z,21888.00
2018-09-13T10:19:48.791Z,20896.00
2018-09-13T10:20:48.809Z,20704.00
2018-09-13T10:21:48.772Z,20768.00
2018-09-13T10:22:48.803Z,20640.00
2018-09-13T10:23:48.781Z,19808.00
2018-09-13T10:24:48.747Z,19424.00
2018-09-13T10:25:48.751Z,19776.00
2018-09-13T10:26:48.830Z,20512.00
2018-09-13T10:27:48.750Z,21472.00
2018-09-13T10:28:48.758Z,22240.00
2018-09-13T10:29:48.861Z,22048.00
2018-09-13T10:30:48.664Z,21408.00
2018-09-13T10:31:48.655Z,20384.00
2018-09-13T10:32:48.682Z,19488.00
2018-09-13T10:33:48.642Z,19904.00
2018-09-13T10:34:48.641Z,22048.00
2018-09-13T10:35:48.655Z,25376.00
2018-09-13T10:36:48.626Z,28544.00
2018-09-13T10:37:48.589Z,30432.00
2018-09-13T10:38:48.594Z,30944.00
2018-09-13T10:39:48.572Z,31232.00
2018-09-13T10:40:48.643Z,30656.00
2018-09-13T10:41:48.564Z,28096.00
2018-09-13T10:42:48.533Z,25952.00
2018-09-13T10:43:48.521Z,23392.00
2018-09-13T10:44:48.557Z,21344.00
2018-09-13T10:45:48.526Z,21248.00
2018-09-13T10:46:48.488Z,22112.00
2018-09-13T10:47:56.485Z,23488.00
2018-09-13T10:48:48.472Z,25216.00
2018-09-13T10:49:48.462Z,26688.00
2018-09-13T10:50:48.488Z,27328.00
2018-09-13T10:51:48.463Z,27584.00
2018-09-13T10:52:48.426Z,27808.00
2018-09-13T10:53:48.427Z,27456.00
2018-09-13T10:54:48.447Z,26240.00
2018-09-13T10:55:48.435Z,24928.00
2018-09-13T10:56:48.400Z,24672.00
2018-09-13T10:57:48.387Z,26080.00
2018-09-13T10:58:48.367Z,27136.00
2018-09-13T10:59:48.353Z,27552.00
2018-09-13T11:00:48.362Z,28128.00
2018-09-13T11:01:48.394Z,29056.00
2018-09-13T11:02:48.317Z,29280.00
2018-09-13T11:03:48.305Z,29024.00
2018-09-13T11:04:48.297Z,26496.00
2018-09-13T11:05:48.303Z,24800.00
2018-09-13T11:06:48.273Z,24704.00
2018-09-13T11:07:48.281Z,24864.00
2018-09-13T11:08:48.252Z,23808.00
2018-09-13T11:09:48.239Z,22016.00
2018-09-13T11:10:48.321Z,21344.00
2018-09-13T11:11:48.237Z,22144.00
2018-09-13T11:12:48.217Z,23680.00
2018-09-13T11:13:48.213Z,25088.00
2018-09-13T11:14:48.182Z,26272.00
2018-09-13T11:15:48.176Z,27168.00
2018-09-13T11:16:48.186Z,27040.00
2018-09-13T11:17:48.162Z,25888.00
2018-09-13T11:18:48.138Z,24864.00
2018-09-13T11:19:48.128Z,24576.00
2018-09-13T11:20:48.123Z,24928.00
2018-09-13T11:21:48.180Z,25088.00
2018-09-13T11:22:48.111Z,24736.00
2018-09-13T11:23:48.099Z,24448.00
2018-09-13T11:28:14.031Z,23264.00
2018-09-13T11:29:14.114Z,23872.00
2018-09-13T11:30:13.927Z,25760.00
2018-09-13T11:31:17.249Z,27360.00
2018-09-13T11:32:16.863Z,29280.00
2018-09-13T11:54:08.182Z,30528.00
2018-09-13T11:55:09.128Z,31680.00
2018-09-13T12:03:50.232Z,22432.00
2018-09-13T12:06:08.901Z,18272.00
2018-09-13T12:07:08.729Z,17888.00
2018-09-13T12:08:08.613Z,18624.00
2018-09-13T12:09:08.783Z,19904.00
2018-09-13T12:10:08.558Z,20896.00
2018-09-13T12:11:08.615Z,21024.00
2018-09-13T12:12:08.530Z,21056.00
2018-09-13T12:13:08.475Z,21408.00
2018-09-13T12:14:08.662Z,21760.00
2018-09-13T12:15:08.456Z,21568.00
2018-09-13T12:16:08.499Z,20320.00
2018-09-13T12:17:08.445Z,19392.00
2018-09-13T12:18:08.450Z,19136.00
2018-09-13T12:19:10.119Z,20288.00
2018-09-13T12:20:09.965Z,22656.00
2018-09-13T12:21:08.690Z,25088.00
2018-09-13T12:22:08.385Z,27168.00
2018-09-13T12:27:03.345Z,29120.00
2018-09-13T12:28:02.817Z,29888.00
2018-09-13T12:29:02.859Z,29920.00
2018-09-13T12:30:02.819Z,30688.00
2018-09-13T12:31:02.767Z,31744.00
2018-09-13T12:32:02.698Z,33344.00
2018-09-13T12:33:02.730Z,33952.00
2018-09-13T12:34:02.691Z,34368.00
2018-09-13T12:35:02.839Z,33216.00
2018-09-13T12:36:02.749Z,32608.00
2018-09-13T12:37:02.653Z,31712.00
2018-09-13T12:38:02.660Z,30112.00
2018-09-13T12:41:05.730Z,25184.00
2018-09-13T12:42:05.423Z,24000.00
2018-09-13T12:43:05.350Z,22784.00
2018-09-13T12:44:05.591Z,21760.00
2018-09-13T12:45:05.167Z,20576.00
2018-09-13T12:46:05.314Z,19264.00
2018-09-13T13:30:32.480Z,31168.00
2018-09-13T13:31:33.437Z,30496.00
2018-09-13T13:33:50.572Z,27008.00
2018-09-13T13:34:50.608Z,25920.00
2018-09-13T13:43:33.801Z,15104.00
2018-09-13T13:47:49.527Z,12156.00
2018-09-13T13:58:53.688Z,16400.00
2018-09-13T14:18:13.367Z,24448.00
2018-09-13T14:19:13.020Z,23168.00
2018-09-13T14:20:13.072Z,22336.00
2018-09-13T14:21:12.967Z,21792.00
2018-09-13T14:22:12.856Z,21536.00
2018-09-13T14:25:18.715Z,21248.00
2018-09-13T14:26:19.837Z,20672.00
2018-09-13T14:27:25.343Z,19168.00
2018-09-13T14:28:18.193Z,17632.00
2018-09-13T14:29:18.201Z,16376.00
2018-09-13T14:31:44.654Z,15272.00
2018-09-13T14:32:55.244Z,15396.00
2018-09-13T14:36:22.656Z,17056.00
2018-09-13T14:37:20.710Z,17024.00
2018-09-13T14:38:20.254Z,16388.00
2018-09-13T14:42:11.377Z,13248.00